createdAt,value
2023-01-29T00:00:02.011Z,0.41
2023-01-29T00:02:30.141Z,0.14
2023-01-29T00:05:10.038Z,0.34
2023-01-29T00:07:46.457Z,0.43
2023-01-29T00:10:15.127Z,0.51
2023-01-29T00:12:43.440Z,0.46
2023-01-29T00:15:11.799Z,-0.53
2023-01-29T00:17:39.953Z,0.18
2023-01-29T00:20:08.793Z,0.32
2023-01-29T00:22:37.010Z,0.46
2023-01-29T00:25:07.540Z,0.36
2023-01-29T00:27:35.791Z,0.34
2023-01-29T00:30:12.237Z,0.54
2023-01-29T00:32:41.011Z,0.48
2023-01-29T00:35:10.264Z,0.49
2023-01-29T00:37:38.743Z,0.11
2023-01-29T00:40:10.017Z,0.46
2023-01-29T00:43:10.248Z,0.46
2023-01-29T00:45:38.774Z,0.36
2023-01-29T00:48:07.489Z,0.46
2023-01-29T00:50:35.694Z,0.52
2023-01-29T00:53:03.941Z,0.54
2023-01-29T00:55:33.472Z,0.53
2023-01-29T00:58:01.654Z,0.40
2023-01-29T01:00:29.850Z,0.46
2023-01-29T01:03:06.317Z,0.60
2023-01-29T01:05:34.688Z,0.60
2023-01-29T01:08:02.972Z,0.61
2023-01-29T01:10:33.326Z,0.53
2023-01-29T01:13:03.650Z,0.36
2023-01-29T01:15:37.203Z,0.54
2023-01-29T01:18:06.260Z,-0.28
2023-01-29T01:20:36.208Z,0.52
2023-01-29T01:23:05.239Z,0.47
2023-01-29T01:25:35.327Z,0.50
2023-01-29T01:28:03.700Z,0.46
2023-01-29T01:30:33.208Z,0.45
2023-01-29T01:33:01.780Z,0.42
2023-01-29T01:35:30.027Z,0.43
2023-01-29T01:37:58.224Z,0.46
2023-01-29T01:40:27.193Z,0.50
2023-01-29T01:42:59.232Z,0.38
2023-01-29T01:45:30.807Z,0.49
2023-01-29T01:48:04.490Z,0.53
2023-01-29T01:50:37.323Z,0.50
2023-01-29T01:53:11.007Z,0.47
2023-01-29T01:55:53.885Z,0.50
2023-01-29T01:58:27.499Z,0.49
2023-01-29T02:00:56.885Z,0.53
2023-01-29T02:03:44.901Z,0.53
2023-01-29T02:06:30.435Z,0.52
2023-01-29T02:09:20.585Z,0.56
2023-01-29T02:11:48.698Z,0.58
2023-01-29T02:14:18.396Z,0.02
2023-01-29T02:16:46.779Z,0.54
2023-01-29T02:19:24.579Z,0.52
2023-01-29T02:22:13.974Z,0.30
2023-01-29T02:25:09.896Z,-0.48
2023-01-29T02:28:13.896Z,0.40
2023-01-29T02:30:51.948Z,0.42
2023-01-29T02:33:27.887Z,0.49
2023-01-29T02:36:03.671Z,0.28
2023-01-29T02:38:40.311Z,0.41
2023-01-29T02:41:15.178Z,0.40
2023-01-29T02:43:47.846Z,0.52
2023-01-29T02:46:27.849Z,0.51
2023-01-29T02:49:00.660Z,0.50
2023-01-29T02:51:36.554Z,0.48
2023-01-29T02:54:08.909Z,0.44
2023-01-29T02:56:41.919Z,-0.29
2023-01-29T02:59:15.585Z,0.54
2023-01-29T03:01:51.510Z,0.46
2023-01-29T03:04:25.731Z,0.35
2023-01-29T03:06:58.644Z,0.60
2023-01-29T03:09:34.290Z,0.47
2023-01-29T03:12:23.624Z,0.57
2023-01-29T03:15:10.206Z,0.38
2023-01-29T03:17:46.489Z,0.37
2023-01-29T03:20:19.277Z,0.31
2023-01-29T03:22:54.770Z,-0.35
2023-01-29T03:25:43.768Z,0.32
2023-01-29T03:28:33.898Z,-0.33
2023-01-29T03:31:24.001Z,0.25
2023-01-29T03:34:00.120Z,0.19
2023-01-29T03:36:38.427Z,0.24
2023-01-29T03:39:09.044Z,0.07
2023-01-29T03:41:41.972Z,0.16
2023-01-29T03:44:17.349Z,0.15
2023-01-29T03:46:55.219Z,0.16
2023-01-29T03:49:33.925Z,0.19
2023-01-29T03:52:06.448Z,0.27
2023-01-29T03:54:45.687Z,0.27
2023-01-29T03:57:20.932Z,0.24
2023-01-29T03:59:54.713Z,0.06
2023-01-29T04:02:28.928Z,0.22
2023-01-29T04:05:03.788Z,-0.64
2023-01-29T04:07:34.918Z,-0.25
2023-01-29T04:10:09.689Z,0.20
2023-01-29T04:12:43.808Z,-0.64
2023-01-29T04:15:16.957Z,0.18
2023-01-29T04:17:50.235Z,-0.14
2023-01-29T04:20:20.159Z,0.06
2023-01-29T04:22:50.128Z,0.01
2023-01-29T04:25:26.899Z,0.06
2023-01-29T04:28:03.987Z,-0.04
2023-01-29T04:30:44.422Z,0.04
2023-01-29T04:33:30.870Z,0.05
2023-01-29T04:36:19.354Z,0.08
2023-01-29T04:38:59.669Z,-0.04
2023-01-29T04:41:34.558Z,-0.13
2023-01-29T04:44:11.337Z,0.08
2023-01-29T04:46:49.405Z,0.14
2023-01-29T04:49:29.090Z,-0.10
2023-01-29T04:52:09.427Z,-0.01
2023-01-29T04:54:52.572Z,-0.03
2023-01-29T04:57:26.776Z,0.06
2023-01-29T05:00:01.518Z,-0.07
2023-01-29T05:02:31.157Z,0.01
2023-01-29T05:05:00.830Z,-0.14
2023-01-29T05:07:32.917Z,-0.19
2023-01-29T05:10:02.315Z,-0.91
2023-01-29T05:12:32.818Z,-0.36
2023-01-29T05:15:05.411Z,-0.63
2023-01-29T05:17:34.646Z,-0.59
2023-01-29T05:20:03.337Z,-1.18
2023-01-29T05:22:33.669Z,-0.49
2023-01-29T05:25:02.720Z,-0.83
2023-01-29T05:27:54.095Z,-0.46
2023-01-29T05:30:23.009Z,-0.42
2023-01-29T05:32:52.070Z,-1.30
2023-01-29T05:35:21.415Z,-0.48
2023-01-29T05:37:52.495Z,-1.56
2023-01-29T05:40:21.194Z,-0.61
2023-01-29T05:42:50.779Z,-0.70
2023-01-29T05:45:20.293Z,-0.64
2023-01-29T05:47:49.077Z,-0.62
2023-01-29T05:50:18.873Z,-0.74
2023-01-29T05:52:47.618Z,-0.83
2023-01-29T05:55:17.828Z,-1.00
2023-01-29T05:57:46.400Z,-1.08
2023-01-29T06:00:16.440Z,-1.45
2023-01-29T06:02:45.507Z,-1.16
2023-01-29T06:05:14.138Z,-1.47
2023-01-29T06:07:45.645Z,-1.26
2023-01-29T06:10:16.254Z,-1.84
2023-01-29T06:12:46.478Z,-1.19
2023-01-29T06:15:15.576Z,-1.19
2023-01-29T06:17:45.098Z,-1.14
2023-01-29T06:20:15.466Z,-1.14
2023-01-29T06:22:44.437Z,-1.11
2023-01-29T06:25:12.718Z,-1.00
2023-01-29T06:27:41.422Z,-0.96
2023-01-29T06:30:12.869Z,-0.96
2023-01-29T06:32:41.756Z,-0.98
2023-01-29T06:35:11.325Z,-1.05
2023-01-29T06:37:40.252Z,-1.16
2023-01-29T06:40:10.400Z,-1.37
2023-01-29T06:42:39.166Z,-1.16
2023-01-29T06:45:08.977Z,-1.17
2023-01-29T06:47:39.229Z,-1.07
2023-01-29T06:50:08.461Z,-1.05
2023-01-29T06:52:37.124Z,-1.13
2023-01-29T06:55:06.290Z,-1.17
2023-01-29T06:57:34.876Z,-1.20
2023-01-29T07:00:03.458Z,-1.16
2023-01-29T07:02:32.059Z,-1.17
2023-01-29T07:05:02.302Z,-1.22
2023-01-29T07:07:30.941Z,-1.46
2023-01-29T07:09:59.788Z,-1.33
2023-01-29T07:12:28.624Z,-1.10
2023-01-29T07:14:57.373Z,-1.02
2023-01-29T07:17:26.228Z,-1.60
2023-01-29T07:19:54.780Z,-0.98
2023-01-29T07:22:25.032Z,-0.85
2023-01-29T07:24:53.637Z,-0.80
2023-01-29T07:27:22.214Z,-1.56
2023-01-29T07:29:50.969Z,-1.25
2023-01-29T07:32:19.726Z,-0.86
2023-01-29T07:34:48.509Z,-0.54
2023-01-29T07:37:17.088Z,-0.62
2023-01-29T07:39:48.041Z,-0.44
2023-01-29T07:42:16.699Z,-0.29
2023-01-29T07:44:45.328Z,-0.40
2023-01-29T07:47:15.219Z,-0.12
2023-01-29T07:49:45.009Z,-0.02
2023-01-29T07:52:13.679Z,0.02
2023-01-29T07:54:42.210Z,0.14
2023-01-29T07:57:12.165Z,0.22
2023-01-29T07:59:40.809Z,0.28
2023-01-29T08:02:10.859Z,0.31
2023-01-29T08:04:39.670Z,0.33
2023-01-29T08:07:09.776Z,0.41
2023-01-29T08:09:38.415Z,0.34
2023-01-29T08:12:07.347Z,0.54
2023-01-29T08:14:37.588Z,0.42
2023-01-29T08:17:06.352Z,0.61
2023-01-29T08:19:35.008Z,0.68
2023-01-29T08:22:03.795Z,0.83
2023-01-29T08:24:47.406Z,0.92
2023-01-29T08:27:21.028Z,1.01
2023-01-29T08:29:51.097Z,1.09
2023-01-29T08:32:19.582Z,1.02
2023-01-29T08:34:48.917Z,1.18
2023-01-29T08:37:17.507Z,1.22
2023-01-29T08:39:46.203Z,1.29
2023-01-29T08:42:14.870Z,1.16
2023-01-29T08:44:43.672Z,1.23
2023-01-29T08:47:14.183Z,1.52
2023-01-29T08:49:42.898Z,1.57
2023-01-29T08:52:11.812Z,1.70
2023-01-29T08:54:40.340Z,1.74
2023-01-29T08:57:08.713Z,1.83
2023-01-29T08:59:37.325Z,1.89
2023-01-29T09:02:06.043Z,2.12
2023-01-29T09:04:36.148Z,2.22
2023-01-29T09:07:04.820Z,2.28
2023-01-29T09:09:33.339Z,1.94
2023-01-29T09:12:02.047Z,1.83
2023-01-29T09:14:30.771Z,2.51
2023-01-29T09:16:59.285Z,2.50
2023-01-29T09:19:27.968Z,2.48
2023-01-29T09:21:58.100Z,2.33
2023-01-29T09:24:26.860Z,2.15
2023-01-29T09:26:55.469Z,2.40
2023-01-29T09:29:24.098Z,2.74
2023-01-29T09:31:52.731Z,3.08
2023-01-29T09:34:21.447Z,3.01
2023-01-29T09:36:50.173Z,3.39
2023-01-29T09:39:20.410Z,3.56
2023-01-29T09:41:56.686Z,3.83
2023-01-29T09:44:36.931Z,3.80
2023-01-29T09:47:10.128Z,3.63
2023-01-29T09:49:43.283Z,3.21
2023-01-29T09:52:19.235Z,2.94
2023-01-29T09:54:56.869Z,2.87
2023-01-29T09:57:29.429Z,2.32
2023-01-29T09:59:58.167Z,1.84
2023-01-29T10:02:58.890Z,2.42
2023-01-29T10:05:49.769Z,2.38
2023-01-29T10:08:43.949Z,2.08
2023-01-29T10:11:23.770Z,2.07
2023-01-29T10:14:06.013Z,2.12
2023-01-29T10:16:47.259Z,2.20
2023-01-29T10:19:39.111Z,2.15
2023-01-29T10:22:26.719Z,2.32
2023-01-29T10:25:01.892Z,2.57
2023-01-29T10:27:35.647Z,2.54
2023-01-29T10:30:09.731Z,2.69
2023-01-29T10:32:39.478Z,2.67
2023-01-29T10:35:24.487Z,2.70
2023-01-29T10:37:55.508Z,2.41
2023-01-29T10:40:27.907Z,2.49
2023-01-29T10:43:05.443Z,2.55
2023-01-29T10:45:42.658Z,2.54
2023-01-29T10:48:49.973Z,2.46
2023-01-29T10:51:41.848Z,2.53
2023-01-29T10:54:22.286Z,2.49
2023-01-29T10:57:04.392Z,2.57
2023-01-29T10:59:46.688Z,2.69
2023-01-29T11:02:18.684Z,2.79
2023-01-29T11:04:47.593Z,2.85
2023-01-29T11:07:19.615Z,2.78
2023-01-29T11:09:55.968Z,2.94
2023-01-29T11:12:30.817Z,3.02
2023-01-29T11:15:05.776Z,3.15
2023-01-29T11:17:34.477Z,2.60
2023-01-29T11:20:03.307Z,3.27
2023-01-29T11:22:32.540Z,3.18
2023-01-29T11:25:19.425Z,3.05
2023-01-29T11:27:50.959Z,3.15
2023-01-29T11:30:26.090Z,3.05
2023-01-29T11:33:07.897Z,2.86
2023-01-29T11:35:36.931Z,2.77
2023-01-29T11:38:19.911Z,2.09
2023-01-29T11:40:49.409Z,2.78
2023-01-29T11:43:30.533Z,2.46
2023-01-29T11:46:03.192Z,2.50
2023-01-29T11:48:42.668Z,2.60
2023-01-29T11:51:14.528Z,2.34
2023-01-29T11:53:46.260Z,2.30
2023-01-29T11:56:23.043Z,2.01
2023-01-29T11:58:53.547Z,2.18
2023-01-29T12:01:33.354Z,1.90
2023-01-29T12:04:03.064Z,1.94
2023-01-29T12:06:37.334Z,1.90
2023-01-29T12:09:16.992Z,1.90
2023-01-29T12:11:46.061Z,1.92
2023-01-29T12:14:30.454Z,1.89
2023-01-29T12:17:06.571Z,1.84
2023-01-29T12:19:42.946Z,1.89
2023-01-29T12:22:18.948Z,1.97
2023-01-29T12:24:54.198Z,2.05
2023-01-29T12:27:30.096Z,1.99
2023-01-29T12:30:06.622Z,2.09
2023-01-29T12:32:45.748Z,2.05
2023-01-29T12:35:21.698Z,2.09
2023-01-29T12:37:57.264Z,2.07
2023-01-29T12:40:30.208Z,0.98
2023-01-29T12:43:05.907Z,2.10
2023-01-29T12:45:36.198Z,1.96
2023-01-29T12:48:10.117Z,2.05
2023-01-29T12:50:40.298Z,2.09
2023-01-29T12:53:22.560Z,2.01
2023-01-29T12:55:55.886Z,1.86
2023-01-29T12:58:30.726Z,1.76
2023-01-29T13:01:06.511Z,1.72
2023-01-29T13:03:48.188Z,1.66
2023-01-29T13:06:19.848Z,1.54
2023-01-29T13:08:54.004Z,1.38
2023-01-29T13:11:26.341Z,1.42
2023-01-29T13:13:57.989Z,1.46
2023-01-29T13:16:30.664Z,1.44
2023-01-29T13:19:03.908Z,1.46
2023-01-29T13:21:41.168Z,1.48
2023-01-29T13:24:16.117Z,1.57
2023-01-29T13:26:47.808Z,1.58
2023-01-29T13:29:24.763Z,0.81
2023-01-29T13:31:55.967Z,1.60
2023-01-29T13:34:29.525Z,1.40
2023-01-29T13:37:01.127Z,1.29
2023-01-29T13:39:32.549Z,1.40
2023-01-29T13:42:04.628Z,1.28
2023-01-29T13:44:36.978Z,1.27
2023-01-29T13:47:07.960Z,1.23
2023-01-29T13:49:42.098Z,0.89
2023-01-29T13:52:22.920Z,1.17
2023-01-29T13:54:55.655Z,1.17
2023-01-29T13:57:53.917Z,1.07
2023-01-29T14:00:57.752Z,1.11
2023-01-29T14:04:04.603Z,1.12
2023-01-29T14:06:55.137Z,1.13
2023-01-29T14:10:03.901Z,1.03
2023-01-29T14:12:42.157Z,0.93
2023-01-29T14:15:21.537Z,1.00
2023-01-29T14:18:00.077Z,1.06
2023-01-29T14:20:45.616Z,1.06
2023-01-29T14:23:28.969Z,1.14
2023-01-29T14:25:58.929Z,1.21
2023-01-29T14:28:31.423Z,1.30
2023-01-29T14:31:00.857Z,1.26
2023-01-29T14:33:35.423Z,0.93
2023-01-29T14:36:08.760Z,-0.31
2023-01-29T14:38:40.349Z,1.27
2023-01-29T14:41:22.688Z,1.42
2023-01-29T14:43:51.319Z,1.42
2023-01-29T14:46:45.923Z,1.38
2023-01-29T14:49:37.429Z,1.19
2023-01-29T14:52:07.697Z,1.39
2023-01-29T14:54:41.227Z,1.32
2023-01-29T14:57:14.747Z,1.17
2023-01-29T14:59:52.609Z,1.26
2023-01-29T15:02:25.469Z,1.32
2023-01-29T15:04:59.020Z,1.25
2023-01-29T15:07:33.680Z,1.23
2023-01-29T15:10:22.732Z,1.27
2023-01-29T15:12:58.808Z,0.65
2023-01-29T15:15:36.388Z,1.24
2023-01-29T15:18:10.080Z,1.13
2023-01-29T15:20:40.820Z,1.24
2023-01-29T15:23:27.714Z,1.15
2023-01-29T15:26:01.926Z,1.31
2023-01-29T15:28:32.494Z,0.87
2023-01-29T15:31:04.527Z,1.15
2023-01-29T15:33:34.027Z,0.51
2023-01-29T15:36:08.406Z,1.04
2023-01-29T15:38:37.844Z,0.83
2023-01-29T15:41:19.748Z,0.92
2023-01-29T15:43:50.490Z,0.94
2023-01-29T15:46:25.653Z,1.05
2023-01-29T15:48:56.488Z,1.07
2023-01-29T15:51:28.738Z,0.34
2023-01-29T15:54:01.599Z,1.00
2023-01-29T15:56:35.707Z,0.46
2023-01-29T15:59:09.716Z,0.73
2023-01-29T16:01:38.956Z,0.92
2023-01-29T16:04:10.779Z,0.78
2023-01-29T16:06:42.617Z,0.86
2023-01-29T16:09:19.237Z,0.78
2023-01-29T16:11:51.597Z,0.82
2023-01-29T16:14:25.746Z,0.82
2023-01-29T16:16:55.475Z,0.10
2023-01-29T16:19:26.358Z,0.74
2023-01-29T16:22:00.303Z,0.67
2023-01-29T16:24:31.447Z,0.67
2023-01-29T16:27:05.522Z,0.71
2023-01-29T16:29:36.510Z,0.77
2023-01-29T16:32:06.447Z,0.76
2023-01-29T16:34:42.928Z,0.79
2023-01-29T16:37:23.292Z,0.78
2023-01-29T16:40:13.324Z,0.80
2023-01-29T16:42:53.716Z,0.67
2023-01-29T16:45:57.417Z,0.50
2023-01-29T16:48:36.488Z,0.87
2023-01-29T16:51:07.169Z,0.93
2023-01-29T16:53:37.624Z,0.99
2023-01-29T16:56:09.427Z,1.02
2023-01-29T16:58:39.449Z,1.17
2023-01-29T17:01:12.233Z,1.20
2023-01-29T17:03:42.500Z,1.04
2023-01-29T17:06:12.555Z,1.02
2023-01-29T17:08:44.078Z,0.96
2023-01-29T17:11:22.299Z,0.25
2023-01-29T17:13:52.533Z,0.22
2023-01-29T17:16:27.472Z,0.93
2023-01-29T17:18:56.418Z,0.93
2023-01-29T17:21:26.414Z,0.50
2023-01-29T17:23:55.439Z,0.81
2023-01-29T17:26:25.598Z,0.28
2023-01-29T17:28:55.949Z,0.97
2023-01-29T17:31:35.570Z,0.89
2023-01-29T17:34:19.203Z,1.04
2023-01-29T17:36:49.846Z,0.99
2023-01-29T17:39:39.695Z,1.01
2023-01-29T17:42:14.239Z,1.02
2023-01-29T17:44:45.048Z,0.90
2023-01-29T17:47:15.737Z,1.02
2023-01-29T17:49:45.140Z,1.00
2023-01-29T17:52:13.824Z,0.97
2023-01-29T17:54:42.441Z,0.83
2023-01-29T17:57:15.029Z,0.90
2023-01-29T17:59:45.837Z,0.79
2023-01-29T18:02:28.763Z,0.74
2023-01-29T18:04:58.628Z,0.84
2023-01-29T18:07:27.328Z,0.98
2023-01-29T18:09:55.887Z,1.01
2023-01-29T18:12:24.540Z,1.03
2023-01-29T18:14:54.667Z,1.04
2023-01-29T18:17:23.798Z,0.79
2023-01-29T18:19:52.297Z,0.93
2023-01-29T18:22:21.109Z,1.00
2023-01-29T18:24:49.873Z,0.95
2023-01-29T18:27:18.528Z,0.82
2023-01-29T18:29:50.239Z,0.70
2023-01-29T18:32:20.429Z,0.61
2023-01-29T18:34:48.890Z,0.34
2023-01-29T18:37:17.579Z,0.54
2023-01-29T18:39:46.378Z,0.58
2023-01-29T18:42:15.068Z,0.60
2023-01-29T18:44:43.589Z,0.56
2023-01-29T18:47:12.310Z,0.67
2023-01-29T18:49:42.705Z,0.61
2023-01-29T18:52:11.282Z,-0.65
2023-01-29T18:54:39.849Z,0.72
2023-01-29T18:57:15.585Z,0.54
2023-01-29T18:59:45.889Z,0.77
2023-01-29T19:02:16.297Z,0.70
2023-01-29T19:04:47.262Z,0.85
2023-01-29T19:07:16.959Z,0.74
2023-01-29T19:09:47.297Z,0.79
2023-01-29T19:12:16.239Z,0.49
2023-01-29T19:14:45.281Z,0.52
2023-01-29T19:17:13.930Z,0.74
2023-01-29T19:19:42.640Z,0.77
2023-01-29T19:22:12.782Z,0.79
2023-01-29T19:24:42.080Z,0.23
2023-01-29T19:27:11.906Z,0.57
2023-01-29T19:29:40.699Z,0.65
2023-01-29T19:32:09.438Z,0.69
2023-01-29T19:34:38.042Z,0.60
2023-01-29T19:37:06.669Z,0.49
2023-01-29T19:39:36.660Z,0.61
2023-01-29T19:42:05.525Z,0.64
2023-01-29T19:44:35.141Z,0.68
2023-01-29T19:47:03.900Z,0.52
2023-01-29T19:49:34.232Z,0.65
2023-01-29T19:52:03.307Z,0.70
2023-01-29T19:54:31.991Z,0.47
2023-01-29T19:57:02.003Z,0.70
2023-01-29T19:59:30.715Z,0.59
2023-01-29T20:01:59.312Z,0.53
2023-01-29T20:04:29.528Z,0.26
2023-01-29T20:06:58.259Z,0.52
2023-01-29T20:09:29.709Z,0.53
2023-01-29T20:11:58.500Z,0.54
2023-01-29T20:14:28.646Z,0.42
2023-01-29T20:16:57.279Z,0.37
2023-01-29T20:19:26.148Z,0.60
2023-01-29T20:21:54.872Z,0.45
2023-01-29T20:24:23.920Z,0.59
2023-01-29T20:26:52.569Z,0.36
2023-01-29T20:29:21.611Z,0.48
2023-01-29T20:31:51.797Z,0.63
2023-01-29T20:34:20.509Z,0.64
2023-01-29T20:36:49.131Z,0.57
2023-01-29T20:39:18.329Z,0.64
2023-01-29T20:41:47.120Z,0.64
2023-01-29T20:44:15.888Z,0.40
2023-01-29T20:46:44.514Z,0.61
2023-01-29T20:49:17.363Z,0.61
2023-01-29T20:51:46.412Z,0.64
2023-01-29T20:54:15.180Z,0.62
2023-01-29T20:56:45.538Z,0.28
2023-01-29T20:59:15.678Z,0.59
2023-01-29T21:01:45.441Z,0.71
2023-01-29T21:04:15.603Z,0.72
2023-01-29T21:06:44.299Z,0.59
2023-01-29T21:09:13.068Z,0.45
2023-01-29T21:11:42.020Z,0.24
2023-01-29T21:14:10.619Z,0.35
2023-01-29T21:16:39.360Z,0.07
2023-01-29T21:19:08.259Z,0.43
2023-01-29T21:21:38.739Z,0.33
2023-01-29T21:24:08.999Z,0.42
2023-01-29T21:26:38.856Z,0.29
2023-01-29T21:29:07.939Z,0.21
2023-01-29T21:31:36.638Z,0.49
2023-01-29T21:34:05.819Z,0.48
2023-01-29T21:36:35.672Z,0.48
2023-01-29T21:39:17.846Z,0.02
2023-01-29T21:42:21.615Z,0.27
2023-01-29T21:44:50.327Z,0.52
2023-01-29T21:47:23.363Z,0.42
2023-01-29T21:49:52.515Z,-12.02
2023-01-29T21:52:20.910Z,0.43
2023-01-29T21:54:51.363Z,0.44
2023-01-29T21:57:20.157Z,0.45
2023-01-29T21:59:53.159Z,0.43
2023-01-29T22:02:23.439Z,0.35
2023-01-29T22:04:54.205Z,0.33
2023-01-29T22:07:23.594Z,0.37
2023-01-29T22:09:54.092Z,0.26
2023-01-29T22:12:23.234Z,0.09
2023-01-29T22:14:52.365Z,-0.10
2023-01-29T22:17:21.174Z,-0.33
2023-01-29T22:19:50.753Z,-0.09
2023-01-29T22:22:21.541Z,-0.07
2023-01-29T22:24:52.835Z,-0.13
2023-01-29T22:27:22.918Z,-0.13
2023-01-29T22:29:51.662Z,-0.34
2023-01-29T22:32:20.524Z,-0.07
2023-01-29T22:34:49.263Z,-0.16
2023-01-29T22:37:17.893Z,-0.21
2023-01-29T22:39:46.423Z,-0.33
2023-01-29T22:42:14.979Z,-0.29
2023-01-29T22:44:45.452Z,-0.35
2023-01-29T22:47:14.103Z,-0.52
2023-01-29T22:49:44.894Z,-0.40
2023-01-29T22:52:14.002Z,-0.67
2023-01-29T22:54:44.090Z,-0.41
2023-01-29T22:57:14.600Z,-0.60
2023-01-29T22:59:44.857Z,-0.64
2023-01-29T23:02:13.463Z,-0.74
2023-01-29T23:04:42.389Z,-0.69
2023-01-29T23:07:11.768Z,-0.68
2023-01-29T23:09:40.330Z,-0.94
2023-01-29T23:12:09.278Z,-0.74
2023-01-29T23:14:37.836Z,-0.69
2023-01-29T23:17:08.064Z,-0.97
2023-01-29T23:19:36.716Z,-0.74
2023-01-29T23:22:05.664Z,-0.94
2023-01-29T23:24:36.415Z,-0.84
2023-01-29T23:27:16.095Z,-0.76
2023-01-29T23:29:46.600Z,-1.10
2023-01-29T23:32:19.175Z,-1.26
2023-01-29T23:34:47.766Z,-0.84
2023-01-29T23:37:16.434Z,-0.89
2023-01-29T23:39:45.120Z,-0.91
2023-01-29T23:42:13.742Z,-0.92
2023-01-29T23:44:42.373Z,-0.95
2023-01-29T23:47:11.524Z,-1.01
2023-01-29T23:49:41.666Z,-1.02
2023-01-29T23:52:10.322Z,-1.23
2023-01-29T23:54:39.032Z,-0.95
2023-01-29T23:57:08.952Z,-1.01
2023-01-29T23:59:37.534Z,-1.05
